sensor_id;sensor_type;location;lat;lon;timestamp;P1;durP1;ratioP1;P2;durP2;ratioP2
65717;SDS011;52445;52.466;-1.016;2023-02-18T00:01:24;4.53;;;2.63;;
65717;SDS011;52445;52.466;-1.016;2023-02-18T00:03:51;3.38;;;1.92;;
65717;SDS011;52445;52.466;-1.016;2023-02-18T00:06:20;4.63;;;2.35;;
65717;SDS011;52445;52.466;-1.016;2023-02-18T00:08:57;3.60;;;2.60;;
65717;SDS011;52445;52.466;-1.016;2023-02-18T00:11:28;3.88;;;2.15;;
65717;SDS011;52445;52.466;-1.016;2023-02-18T00:13:57;3.70;;;2.35;;
65717;SDS011;52445;52.466;-1.016;2023-02-18T00:16:27;3.78;;;2.53;;
65717;SDS011;52445;52.466;-1.016;2023-02-18T00:18:55;3.92;;;2.58;;
65717;SDS011;52445;52.466;-1.016;2023-02-18T00:21:24;4.32;;;2.42;;
65717;SDS011;52445;52.466;-1.016;2023-02-18T00:23:51;4.18;;;2.03;;
65717;SDS011;52445;52.466;-1.016;2023-02-18T00:26:18;3.70;;;2.38;;
65717;SDS011;52445;52.466;-1.016;2023-02-18T00:28:46;3.40;;;1.98;;
65717;SDS011;52445;52.466;-1.016;2023-02-18T00:31:16;4.13;;;2.55;;
65717;SDS011;52445;52.466;-1.016;2023-02-18T00:33:45;3.25;;;1.92;;
65717;SDS011;52445;52.466;-1.016;2023-02-18T00:36:14;3.13;;;2.10;;
65717;SDS011;52445;52.466;-1.016;2023-02-18T00:38:47;3.97;;;2.25;;
65717;SDS011;52445;52.466;-1.016;2023-02-18T00:41:15;3.83;;;2.00;;
65717;SDS011;52445;52.466;-1.016;2023-02-18T00:43:42;3.33;;;1.95;;
65717;SDS011;52445;52.466;-1.016;2023-02-18T00:46:08;4.32;;;2.13;;
65717;SDS011;52445;52.466;-1.016;2023-02-18T00:48:35;3.50;;;2.38;;
65717;SDS011;52445;52.466;-1.016;2023-02-18T00:51:02;3.25;;;1.77;;
65717;SDS011;52445;52.466;-1.016;2023-02-18T00:53:30;3.33;;;2.30;;
65717;SDS011;52445;52.466;-1.016;2023-02-18T00:55:57;3.60;;;2.33;;
65717;SDS011;52445;52.466;-1.016;2023-02-18T00:58:25;3.60;;;2.17;;
65717;SDS011;52445;52.466;-1.016;2023-02-18T01:00:52;3.78;;;1.88;;
65717;SDS011;52445;52.466;-1.016;2023-02-18T01:03:19;3.22;;;1.63;;
65717;SDS011;52445;52.466;-1.016;2023-02-18T01:05:48;2.92;;;1.52;;
65717;SDS011;52445;52.466;-1.016;2023-02-18T01:08:16;3.15;;;1.80;;
65717;SDS011;52445;52.466;-1.016;2023-02-18T01:10:44;3.55;;;2.33;;
65717;SDS011;52445;52.466;-1.016;2023-02-18T01:13:13;4.32;;;1.95;;
65717;SDS011;52445;52.466;-1.016;2023-02-18T01:15:41;2.53;;;1.30;;
65717;SDS011;52445;52.466;-1.016;2023-02-18T01:18:08;3.28;;;2.30;;
65717;SDS011;52445;52.466;-1.016;2023-02-18T01:20:36;3.22;;;1.75;;
65717;SDS011;52445;52.466;-1.016;2023-02-18T01:23:04;3.00;;;1.63;;
65717;SDS011;52445;52.466;-1.016;2023-02-18T01:25:31;2.45;;;1.48;;
65717;SDS011;52445;52.466;-1.016;2023-02-18T01:27:58;2.40;;;1.60;;
65717;SDS011;52445;52.466;-1.016;2023-02-18T01:30:24;2.90;;;1.58;;
65717;SDS011;52445;52.466;-1.016;2023-02-18T01:32:51;3.00;;;1.55;;
65717;SDS011;52445;52.466;-1.016;2023-02-18T01:35:18;2.63;;;1.55;;
65717;SDS011;52445;52.466;-1.016;2023-02-18T01:37:45;3.05;;;1.77;;
65717;SDS011;52445;52.466;-1.016;2023-02-18T01:40:18;2.80;;;1.27;;
65717;SDS011;52445;52.466;-1.016;2023-02-18T01:42:46;3.10;;;1.42;;
65717;SDS011;52445;52.466;-1.016;2023-02-18T01:48:12;3.08;;;2.30;;
65717;SDS011;52445;52.466;-1.016;2023-02-18T01:50:44;2.28;;;1.88;;
65717;SDS011;52445;52.466;-1.016;2023-02-18T01:53:16;2.53;;;2.05;;
65717;SDS011;52445;52.466;-1.016;2023-02-18T01:55:47;2.60;;;2.40;;
65717;SDS011;52445;52.466;-1.016;2023-02-18T01:58:14;2.38;;;2.15;;
65717;SDS011;52445;52.466;-1.016;2023-02-18T02:00:41;2.17;;;1.92;;
65717;SDS011;52445;52.466;-1.016;2023-02-18T02:03:08;2.40;;;1.73;;
65717;SDS011;52445;52.466;-1.016;2023-02-18T02:05:35;2.60;;;2.22;;
65717;SDS011;52445;52.466;-1.016;2023-02-18T02:08:01;3.03;;;1.42;;
65717;SDS011;52445;52.466;-1.016;2023-02-18T02:10:35;2.20;;;2.00;;
65717;SDS011;52445;52.466;-1.016;2023-02-18T02:16:47;2.88;;;1.80;;
65717;SDS011;52445;52.466;-1.016;2023-02-18T02:38:38;2.83;;;0.93;;
65717;SDS011;52445;52.466;-1.016;2023-02-18T02:44:06;1.83;;;0.60;;
65717;SDS011;52445;52.466;-1.016;2023-02-18T02:46:50;2.00;;;0.70;;
65717;SDS011;52445;52.466;-1.016;2023-02-18T02:49:31;1.05;;;0.80;;
65717;SDS011;52445;52.466;-1.016;2023-02-18T02:52:11;1.85;;;1.33;;
65717;SDS011;52445;52.466;-1.016;2023-02-18T02:54:43;1.92;;;0.90;;
65717;SDS011;52445;52.466;-1.016;2023-02-18T02:59:48;3.10;;;1.38;;
65717;SDS011;52445;52.466;-1.016;2023-02-18T03:19:19;3.17;;;1.27;;
65717;SDS011;52445;52.466;-1.016;2023-02-18T03:22:00;6.38;;;2.72;;
65717;SDS011;52445;52.466;-1.016;2023-02-18T03:24:36;2.42;;;1.63;;
65717;SDS011;52445;52.466;-1.016;2023-02-18T03:27:11;5.65;;;1.77;;
65717;SDS011;52445;52.466;-1.016;2023-02-18T03:29:51;1.45;;;0.60;;
65717;SDS011;52445;52.466;-1.016;2023-02-18T03:32:22;2.55;;;1.45;;
65717;SDS011;52445;52.466;-1.016;2023-02-18T03:34:52;2.55;;;1.88;;
65717;SDS011;52445;52.466;-1.016;2023-02-18T03:37:23;5.38;;;1.98;;
65717;SDS011;52445;52.466;-1.016;2023-02-18T03:39:51;3.22;;;1.90;;
65717;SDS011;52445;52.466;-1.016;2023-02-18T03:42:26;3.47;;;1.92;;
65717;SDS011;52445;52.466;-1.016;2023-02-18T03:44:53;3.00;;;0.57;;
65717;SDS011;52445;52.466;-1.016;2023-02-18T03:47:20;3.58;;;1.50;;
65717;SDS011;52445;52.466;-1.016;2023-02-18T03:49:47;6.57;;;2.13;;
65717;SDS011;52445;52.466;-1.016;2023-02-18T03:52:13;1.95;;;1.45;;
65717;SDS011;52445;52.466;-1.016;2023-02-18T03:54:40;6.30;;;1.70;;
65717;SDS011;52445;52.466;-1.016;2023-02-18T03:57:07;4.78;;;1.65;;
65717;SDS011;52445;52.466;-1.016;2023-02-18T03:59:34;4.75;;;1.38;;
65717;SDS011;52445;52.466;-1.016;2023-02-18T04:02:01;3.63;;;1.27;;
65717;SDS011;52445;52.466;-1.016;2023-02-18T04:04:28;2.58;;;1.77;;
65717;SDS011;52445;52.466;-1.016;2023-02-18T04:06:55;4.57;;;1.83;;
65717;SDS011;52445;52.466;-1.016;2023-02-18T04:09:22;4.57;;;2.33;;
65717;SDS011;52445;52.466;-1.016;2023-02-18T04:11:49;3.30;;;1.67;;
65717;SDS011;52445;52.466;-1.016;2023-02-18T04:14:16;4.43;;;1.88;;
65717;SDS011;52445;52.466;-1.016;2023-02-18T04:16:42;3.70;;;1.70;;
65717;SDS011;52445;52.466;-1.016;2023-02-18T04:19:09;6.72;;;2.00;;
65717;SDS011;52445;52.466;-1.016;2023-02-18T04:21:36;3.47;;;1.73;;
65717;SDS011;52445;52.466;-1.016;2023-02-18T04:24:02;4.15;;;2.13;;
65717;SDS011;52445;52.466;-1.016;2023-02-18T04:26:29;5.10;;;1.75;;
65717;SDS011;52445;52.466;-1.016;2023-02-18T04:28:56;4.50;;;1.67;;
65717;SDS011;52445;52.466;-1.016;2023-02-18T04:31:22;3.63;;;2.25;;
65717;SDS011;52445;52.466;-1.016;2023-02-18T04:33:49;5.75;;;3.25;;
65717;SDS011;52445;52.466;-1.016;2023-02-18T04:36:15;7.43;;;1.83;;
65717;SDS011;52445;52.466;-1.016;2023-02-18T04:38:42;6.05;;;2.03;;
65717;SDS011;52445;52.466;-1.016;2023-02-18T04:41:08;6.18;;;0.60;;
65717;SDS011;52445;52.466;-1.016;2023-02-18T04:43:38;5.15;;;1.75;;
65717;SDS011;52445;52.466;-1.016;2023-02-18T04:46:04;5.38;;;0.40;;
65717;SDS011;52445;52.466;-1.016;2023-02-18T04:48:31;2.65;;;1.55;;
65717;SDS011;52445;52.466;-1.016;2023-02-18T04:50:58;5.72;;;1.88;;
65717;SDS011;52445;52.466;-1.016;2023-02-18T04:53:24;5.30;;;1.95;;
65717;SDS011;52445;52.466;-1.016;2023-02-18T04:55:52;4.30;;;0.60;;
65717;SDS011;52445;52.466;-1.016;2023-02-18T04:58:19;5.03;;;1.98;;
65717;SDS011;52445;52.466;-1.016;2023-02-18T05:00:47;7.18;;;2.05;;
65717;SDS011;52445;52.466;-1.016;2023-02-18T05:03:13;3.70;;;0.70;;
65717;SDS011;52445;52.466;-1.016;2023-02-18T05:05:40;4.93;;;1.58;;
65717;SDS011;52445;52.466;-1.016;2023-02-18T05:08:07;5.47;;;1.98;;
65717;SDS011;52445;52.466;-1.016;2023-02-18T05:10:34;8.43;;;2.00;;
65717;SDS011;52445;52.466;-1.016;2023-02-18T05:13:02;2.95;;;1.75;;
65717;SDS011;52445;52.466;-1.016;2023-02-18T05:15:29;2.25;;;1.65;;
65717;SDS011;52445;52.466;-1.016;2023-02-18T05:17:56;3.67;;;1.45;;
65717;SDS011;52445;52.466;-1.016;2023-02-18T05:20:22;4.18;;;1.52;;
65717;SDS011;52445;52.466;-1.016;2023-02-18T05:22:49;2.45;;;1.15;;
65717;SDS011;52445;52.466;-1.016;2023-02-18T05:25:16;2.60;;;1.13;;
65717;SDS011;52445;52.466;-1.016;2023-02-18T05:27:42;4.57;;;1.90;;
65717;SDS011;52445;52.466;-1.016;2023-02-18T05:30:09;5.13;;;1.40;;
65717;SDS011;52445;52.466;-1.016;2023-02-18T05:32:36;3.17;;;1.48;;
65717;SDS011;52445;52.466;-1.016;2023-02-18T05:35:02;2.13;;;1.67;;
65717;SDS011;52445;52.466;-1.016;2023-02-18T05:37:29;2.15;;;0.55;;
65717;SDS011;52445;52.466;-1.016;2023-02-18T05:39:56;2.30;;;1.38;;
65717;SDS011;52445;52.466;-1.016;2023-02-18T05:42:22;3.60;;;1.65;;
65717;SDS011;52445;52.466;-1.016;2023-02-18T05:44:49;3.60;;;1.25;;
65717;SDS011;52445;52.466;-1.016;2023-02-18T05:47:16;2.63;;;1.42;;
65717;SDS011;52445;52.466;-1.016;2023-02-18T05:49:43;2.28;;;1.67;;
65717;SDS011;52445;52.466;-1.016;2023-02-18T05:52:09;2.88;;;1.27;;
65717;SDS011;52445;52.466;-1.016;2023-02-18T05:54:38;1.55;;;1.45;;
65717;SDS011;52445;52.466;-1.016;2023-02-18T05:57:04;1.75;;;1.20;;
65717;SDS011;52445;52.466;-1.016;2023-02-18T05:59:31;2.80;;;1.45;;
65717;SDS011;52445;52.466;-1.016;2023-02-18T06:01:58;3.20;;;1.67;;
65717;SDS011;52445;52.466;-1.016;2023-02-18T06:04:25;6.35;;;2.05;;
65717;SDS011;52445;52.466;-1.016;2023-02-18T06:06:52;5.22;;;1.35;;
65717;SDS011;52445;52.466;-1.016;2023-02-18T06:09:19;2.35;;;0.95;;
65717;SDS011;52445;52.466;-1.016;2023-02-18T06:11:46;2.90;;;0.50;;
65717;SDS011;52445;52.466;-1.016;2023-02-18T06:14:13;1.80;;;1.45;;
65717;SDS011;52445;52.466;-1.016;2023-02-18T06:16:39;1.65;;;0.60;;
65717;SDS011;52445;52.466;-1.016;2023-02-18T06:19:06;1.40;;;1.23;;
65717;SDS011;52445;52.466;-1.016;2023-02-18T06:21:33;3.53;;;3.10;;
65717;SDS011;52445;52.466;-1.016;2023-02-18T06:23:59;2.50;;;0.63;;
65717;SDS011;52445;52.466;-1.016;2023-02-18T06:26:26;1.98;;;1.23;;
65717;SDS011;52445;52.466;-1.016;2023-02-18T06:28:53;2.95;;;0.63;;
65717;SDS011;52445;52.466;-1.016;2023-02-18T06:31:19;2.97;;;2.33;;
65717;SDS011;52445;52.466;-1.016;2023-02-18T06:33:46;1.90;;;1.67;;
65717;SDS011;52445;52.466;-1.016;2023-02-18T06:36:13;1.65;;;1.50;;
65717;SDS011;52445;52.466;-1.016;2023-02-18T06:38:40;1.23;;;0.70;;
65717;SDS011;52445;52.466;-1.016;2023-02-18T06:41:08;2.53;;;2.15;;
65717;SDS011;52445;52.466;-1.016;2023-02-18T06:43:36;4.60;;;1.73;;
65717;SDS011;52445;52.466;-1.016;2023-02-18T06:46:03;2.95;;;1.65;;
65717;SDS011;52445;52.466;-1.016;2023-02-18T06:48:30;2.97;;;1.35;;
65717;SDS011;52445;52.466;-1.016;2023-02-18T06:50:57;1.58;;;1.48;;
65717;SDS011;52445;52.466;-1.016;2023-02-18T06:53:24;4.15;;;1.73;;
65717;SDS011;52445;52.466;-1.016;2023-02-18T06:55:51;3.40;;;2.05;;
65717;SDS011;52445;52.466;-1.016;2023-02-18T06:58:18;2.55;;;1.70;;
65717;SDS011;52445;52.466;-1.016;2023-02-18T07:00:44;1.40;;;1.30;;
65717;SDS011;52445;52.466;-1.016;2023-02-18T07:03:12;1.15;;;1.05;;
65717;SDS011;52445;52.466;-1.016;2023-02-18T07:05:40;4.28;;;1.38;;
65717;SDS011;52445;52.466;-1.016;2023-02-18T07:08:07;3.63;;;1.42;;
65717;SDS011;52445;52.466;-1.016;2023-02-18T07:10:35;1.50;;;1.33;;
65717;SDS011;52445;52.466;-1.016;2023-02-18T07:13:01;1.30;;;1.20;;
65717;SDS011;52445;52.466;-1.016;2023-02-18T07:15:28;1.85;;;1.55;;
65717;SDS011;52445;52.466;-1.016;2023-02-18T07:17:55;2.05;;;1.40;;
65717;SDS011;52445;52.466;-1.016;2023-02-18T07:20:21;0.70;;;0.32;;
65717;SDS011;52445;52.466;-1.016;2023-02-18T07:22:48;2.40;;;1.80;;
65717;SDS011;52445;52.466;-1.016;2023-02-18T07:25:15;1.77;;;0.50;;
65717;SDS011;52445;52.466;-1.016;2023-02-18T07:27:42;1.42;;;0.70;;
65717;SDS011;52445;52.466;-1.016;2023-02-18T07:30:08;1.55;;;1.23;;
65717;SDS011;52445;52.466;-1.016;2023-02-18T07:32:35;1.63;;;1.27;;
65717;SDS011;52445;52.466;-1.016;2023-02-18T07:35:03;1.70;;;1.52;;
65717;SDS011;52445;52.466;-1.016;2023-02-18T07:37:30;6.93;;;3.95;;
65717;SDS011;52445;52.466;-1.016;2023-02-18T07:39:57;13.45;;;7.40;;
65717;SDS011;52445;52.466;-1.016;2023-02-18T07:42:24;12.25;;;6.63;;
65717;SDS011;52445;52.466;-1.016;2023-02-18T07:44:50;7.35;;;4.68;;
65717;SDS011;52445;52.466;-1.016;2023-02-18T07:47:17;4.80;;;2.92;;
65717;SDS011;52445;52.466;-1.016;2023-02-18T07:49:45;6.05;;;3.95;;
65717;SDS011;52445;52.466;-1.016;2023-02-18T07:52:13;5.20;;;2.72;;
65717;SDS011;52445;52.466;-1.016;2023-02-18T07:54:40;2.95;;;1.63;;
65717;SDS011;52445;52.466;-1.016;2023-02-18T07:57:07;2.90;;;1.88;;
65717;SDS011;52445;52.466;-1.016;2023-02-18T07:59:34;2.83;;;2.28;;
65717;SDS011;52445;52.466;-1.016;2023-02-18T08:02:01;2.97;;;2.08;;
65717;SDS011;52445;52.466;-1.016;2023-02-18T08:04:28;1.73;;;0.75;;
65717;SDS011;52445;52.466;-1.016;2023-02-18T08:06:54;2.05;;;1.85;;
65717;SDS011;52445;52.466;-1.016;2023-02-18T08:09:21;2.38;;;2.17;;
65717;SDS011;52445;52.466;-1.016;2023-02-18T08:11:47;1.98;;;1.88;;
65717;SDS011;52445;52.466;-1.016;2023-02-18T08:14:14;1.48;;;0.45;;
65717;SDS011;52445;52.466;-1.016;2023-02-18T08:16:41;19.73;;;6.70;;
65717;SDS011;52445;52.466;-1.016;2023-02-18T08:19:08;14.38;;;6.20;;
65717;SDS011;52445;52.466;-1.016;2023-02-18T08:21:34;11.45;;;5.88;;
65717;SDS011;52445;52.466;-1.016;2023-02-18T08:24:01;12.27;;;6.00;;
65717;SDS011;52445;52.466;-1.016;2023-02-18T08:26:28;9.63;;;5.15;;
65717;SDS011;52445;52.466;-1.016;2023-02-18T08:28:54;2.55;;;2.05;;
65717;SDS011;52445;52.466;-1.016;2023-02-18T08:31:23;1.85;;;1.60;;
65717;SDS011;52445;52.466;-1.016;2023-02-18T08:33:52;1.67;;;1.58;;
65717;SDS011;52445;52.466;-1.016;2023-02-18T08:36:20;2.00;;;1.85;;
65717;SDS011;52445;52.466;-1.016;2023-02-18T08:38:47;0.70;;;0.50;;
65717;SDS011;52445;52.466;-1.016;2023-02-18T08:41:15;1.02;;;1.02;;
65717;SDS011;52445;52.466;-1.016;2023-02-18T08:43:44;2.65;;;2.22;;
65717;SDS011;52445;52.466;-1.016;2023-02-18T08:46:11;1.75;;;1.65;;
65717;SDS011;52445;52.466;-1.016;2023-02-18T08:48:42;2.50;;;2.30;;
65717;SDS011;52445;52.466;-1.016;2023-02-18T08:51:10;2.78;;;2.58;;
65717;SDS011;52445;52.466;-1.016;2023-02-18T08:53:39;2.35;;;2.13;;
65717;SDS011;52445;52.466;-1.016;2023-02-18T08:56:06;2.25;;;0.85;;
65717;SDS011;52445;52.466;-1.016;2023-02-18T08:58:35;2.88;;;2.08;;
65717;SDS011;52445;52.466;-1.016;2023-02-18T09:01:03;1.13;;;0.68;;
65717;SDS011;52445;52.466;-1.016;2023-02-18T09:05:59;2.00;;;1.90;;
65717;SDS011;52445;52.466;-1.016;2023-02-18T09:08:26;2.00;;;1.70;;
65717;SDS011;52445;52.466;-1.016;2023-02-18T09:10:54;1.35;;;0.63;;
65717;SDS011;52445;52.466;-1.016;2023-02-18T09:13:23;2.40;;;2.10;;
65717;SDS011;52445;52.466;-1.016;2023-02-18T09:15:54;2.40;;;0.88;;
65717;SDS011;52445;52.466;-1.016;2023-02-18T09:18:22;2.60;;;1.60;;
65717;SDS011;52445;52.466;-1.016;2023-02-18T09:20:49;4.90;;;1.10;;
65717;SDS011;52445;52.466;-1.016;2023-02-18T09:23:16;2.00;;;1.10;;
65717;SDS011;52445;52.466;-1.016;2023-02-18T09:25:43;2.25;;;1.73;;
65717;SDS011;52445;52.466;-1.016;2023-02-18T09:28:09;3.78;;;2.50;;
65717;SDS011;52445;52.466;-1.016;2023-02-18T09:30:37;12.02;;;5.65;;
65717;SDS011;52445;52.466;-1.016;2023-02-18T09:33:05;21.73;;;7.57;;
65717;SDS011;52445;52.466;-1.016;2023-02-18T09:35:31;13.57;;;5.60;;
65717;SDS011;52445;52.466;-1.016;2023-02-18T09:37:58;10.38;;;4.65;;
65717;SDS011;52445;52.466;-1.016;2023-02-18T09:40:26;8.75;;;4.43;;
65717;SDS011;52445;52.466;-1.016;2023-02-18T09:42:56;10.02;;;6.05;;
65717;SDS011;52445;52.466;-1.016;2023-02-18T09:45:24;8.05;;;4.47;;
65717;SDS011;52445;52.466;-1.016;2023-02-18T09:47:51;3.08;;;2.13;;
65717;SDS011;52445;52.466;-1.016;2023-02-18T09:50:21;3.90;;;2.78;;
65717;SDS011;52445;52.466;-1.016;2023-02-18T09:52:58;6.38;;;2.10;;
65717;SDS011;52445;52.466;-1.016;2023-02-18T09:55:27;2.88;;;1.58;;
65717;SDS011;52445;52.466;-1.016;2023-02-18T10:00:35;2.08;;;1.58;;
65717;SDS011;52445;52.466;-1.016;2023-02-18T10:03:14;1.05;;;0.70;;
65717;SDS011;52445;52.466;-1.016;2023-02-18T10:08:33;1.60;;;1.05;;
65717;SDS011;52445;52.466;-1.016;2023-02-18T10:11:02;5.38;;;2.45;;
65717;SDS011;52445;52.466;-1.016;2023-02-18T10:13:30;5.65;;;1.88;;
65717;SDS011;52445;52.466;-1.016;2023-02-18T10:15:58;3.70;;;1.23;;
65717;SDS011;52445;52.466;-1.016;2023-02-18T10:18:27;7.53;;;3.15;;
65717;SDS011;52445;52.466;-1.016;2023-02-18T10:21:04;2.40;;;1.05;;
65717;SDS011;52445;52.466;-1.016;2023-02-18T10:23:36;3.05;;;0.85;;
65717;SDS011;52445;52.466;-1.016;2023-02-18T10:26:06;5.30;;;2.28;;
65717;SDS011;52445;52.466;-1.016;2023-02-18T10:28:37;3.38;;;1.63;;
65717;SDS011;52445;52.466;-1.016;2023-02-18T10:31:05;4.43;;;1.55;;
65717;SDS011;52445;52.466;-1.016;2023-02-18T10:33:41;1.83;;;0.77;;
65717;SDS011;52445;52.466;-1.016;2023-02-18T10:36:22;1.27;;;0.75;;
65717;SDS011;52445;52.466;-1.016;2023-02-18T10:47:51;3.50;;;1.80;;
65717;SDS011;52445;52.466;-1.016;2023-02-18T10:50:29;3.58;;;2.28;;
65717;SDS011;52445;52.466;-1.016;2023-02-18T10:53:01;2.70;;;1.25;;
65717;SDS011;52445;52.466;-1.016;2023-02-18T10:55:38;3.85;;;2.10;;
65717;SDS011;52445;52.466;-1.016;2023-02-18T10:58:25;2.60;;;1.60;;
65717;SDS011;52445;52.466;-1.016;2023-02-18T11:01:12;2.22;;;0.75;;
65717;SDS011;52445;52.466;-1.016;2023-02-18T11:08:55;1.30;;;0.45;;
65717;SDS011;52445;52.466;-1.016;2023-02-18T11:11:24;1.60;;;0.55;;
65717;SDS011;52445;52.466;-1.016;2023-02-18T11:13:58;2.88;;;0.52;;
65717;SDS011;52445;52.466;-1.016;2023-02-18T11:16:36;0.93;;;0.73;;
65717;SDS011;52445;52.466;-1.016;2023-02-18T11:24:44;2.63;;;0.57;;
65717;SDS011;52445;52.466;-1.016;2023-02-18T11:27:18;2.28;;;0.93;;
65717;SDS011;52445;52.466;-1.016;2023-02-18T11:29:50;1.73;;;0.93;;
65717;SDS011;52445;52.466;-1.016;2023-02-18T11:32:19;5.28;;;0.60;;
65717;SDS011;52445;52.466;-1.016;2023-02-18T11:34:46;2.40;;;0.45;;
65717;SDS011;52445;52.466;-1.016;2023-02-18T11:37:16;1.33;;;0.38;;
65717;SDS011;52445;52.466;-1.016;2023-02-18T11:39:45;1.00;;;0.40;;
65717;SDS011;52445;52.466;-1.016;2023-02-18T11:42:15;0.90;;;0.50;;
65717;SDS011;52445;52.466;-1.016;2023-02-18T11:45:00;1.10;;;0.35;;
65717;SDS011;52445;52.466;-1.016;2023-02-18T11:47:32;1.63;;;0.82;;
65717;SDS011;52445;52.466;-1.016;2023-02-18T11:52:45;2.50;;;1.00;;
65717;SDS011;52445;52.466;-1.016;2023-02-18T12:00:46;2.20;;;0.52;;
65717;SDS011;52445;52.466;-1.016;2023-02-18T12:09:02;3.67;;;1.20;;
65717;SDS011;52445;52.466;-1.016;2023-02-18T12:11:41;10.88;;;3.70;;
65717;SDS011;52445;52.466;-1.016;2023-02-18T12:14:16;8.25;;;4.72;;
65717;SDS011;52445;52.466;-1.016;2023-02-18T12:19:31;4.40;;;2.88;;
65717;SDS011;52445;52.466;-1.016;2023-02-18T12:22:15;6.57;;;3.78;;
65717;SDS011;52445;52.466;-1.016;2023-02-18T12:24:51;2.53;;;2.00;;
65717;SDS011;52445;52.466;-1.016;2023-02-18T12:35:49;1.60;;;0.82;;
65717;SDS011;52445;52.466;-1.016;2023-02-18T12:52:51;2.00;;;1.67;;
65717;SDS011;52445;52.466;-1.016;2023-02-18T12:55:40;1.60;;;1.50;;
65717;SDS011;52445;52.466;-1.016;2023-02-18T13:01:02;0.85;;;0.50;;
65717;SDS011;52445;52.466;-1.016;2023-02-18T13:03:57;2.03;;;1.83;;
65717;SDS011;52445;52.466;-1.016;2023-02-18T13:06:50;2.53;;;2.33;;
65717;SDS011;52445;52.466;-1.016;2023-02-18T13:17:47;0.63;;;0.63;;
65717;SDS011;52445;52.466;-1.016;2023-02-18T13:20:20;0.60;;;0.43;;
65717;SDS011;52445;52.466;-1.016;2023-02-18T13:22:51;1.23;;;0.55;;
65717;SDS011;52445;52.466;-1.016;2023-02-18T13:25:18;3.15;;;0.88;;
65717;SDS011;52445;52.466;-1.016;2023-02-18T13:41:16;3.92;;;2.40;;
65717;SDS011;52445;52.466;-1.016;2023-02-18T13:43:44;1.35;;;1.25;;
65717;SDS011;52445;52.466;-1.016;2023-02-18T13:46:14;1.70;;;1.60;;
65717;SDS011;52445;52.466;-1.016;2023-02-18T14:07:45;21.85;;;8.05;;
65717;SDS011;52445;52.466;-1.016;2023-02-18T14:18:24;2.30;;;0.88;;
65717;SDS011;52445;52.466;-1.016;2023-02-18T14:21:02;5.32;;;1.80;;
65717;SDS011;52445;52.466;-1.016;2023-02-18T14:23:43;1.55;;;0.70;;
65717;SDS011;52445;52.466;-1.016;2023-02-18T14:26:24;3.70;;;0.30;;
65717;SDS011;52445;52.466;-1.016;2023-02-18T14:31:33;8.35;;;2.20;;
65717;SDS011;52445;52.466;-1.016;2023-02-18T14:34:17;1.15;;;0.50;;
65717;SDS011;52445;52.466;-1.016;2023-02-18T14:37:03;1.30;;;0.77;;
65717;SDS011;52445;52.466;-1.016;2023-02-18T14:39:56;3.38;;;0.80;;
65717;SDS011;52445;52.466;-1.016;2023-02-18T14:51:14;2.05;;;0.70;;
65717;SDS011;52445;52.466;-1.016;2023-02-18T14:53:43;3.15;;;0.80;;
65717;SDS011;52445;52.466;-1.016;2023-02-18T14:56:12;1.08;;;0.50;;
65717;SDS011;52445;52.466;-1.016;2023-02-18T14:58:42;2.15;;;0.93;;
65717;SDS011;52445;52.466;-1.016;2023-02-18T15:01:18;4.22;;;0.85;;
65717;SDS011;52445;52.466;-1.016;2023-02-18T15:03:55;3.95;;;1.95;;
65717;SDS011;52445;52.466;-1.016;2023-02-18T15:06:31;6.80;;;1.17;;
65717;SDS011;52445;52.466;-1.016;2023-02-18T15:09:01;3.53;;;1.85;;
65717;SDS011;52445;52.466;-1.016;2023-02-18T15:11:39;6.40;;;2.35;;
65717;SDS011;52445;52.466;-1.016;2023-02-18T15:14:15;6.13;;;3.10;;
65717;SDS011;52445;52.466;-1.016;2023-02-18T15:16:45;5.28;;;3.30;;
65717;SDS011;52445;52.466;-1.016;2023-02-18T15:19:14;2.28;;;1.70;;
65717;SDS011;52445;52.466;-1.016;2023-02-18T15:21:46;3.88;;;1.95;;
65717;SDS011;52445;52.466;-1.016;2023-02-18T15:27:02;2.85;;;1.40;;
65717;SDS011;52445;52.466;-1.016;2023-02-18T15:29:36;5.03;;;3.60;;
65717;SDS011;52445;52.466;-1.016;2023-02-18T15:32:20;5.28;;;3.92;;
65717;SDS011;52445;52.466;-1.016;2023-02-18T15:34:50;6.25;;;5.15;;
65717;SDS011;52445;52.466;-1.016;2023-02-18T15:37:21;2.85;;;2.08;;
65717;SDS011;52445;52.466;-1.016;2023-02-18T15:39:48;6.82;;;2.38;;
65717;SDS011;52445;52.466;-1.016;2023-02-18T15:42:18;3.53;;;2.53;;
65717;SDS011;52445;52.466;-1.016;2023-02-18T15:45:01;0.80;;;0.40;;
65717;SDS011;52445;52.466;-1.016;2023-02-18T15:47:30;0.30;;;0.30;;
65717;SDS011;52445;52.466;-1.016;2023-02-18T15:49:59;3.92;;;0.65;;
65717;SDS011;52445;52.466;-1.016;2023-02-18T15:52:29;4.38;;;1.00;;
65717;SDS011;52445;52.466;-1.016;2023-02-18T15:55:00;1.50;;;0.55;;
65717;SDS011;52445;52.466;-1.016;2023-02-18T15:57:31;3.67;;;2.50;;
65717;SDS011;52445;52.466;-1.016;2023-02-18T16:00:05;3.22;;;1.00;;
65717;SDS011;52445;52.466;-1.016;2023-02-18T16:02:51;2.17;;;0.57;;
65717;SDS011;52445;52.466;-1.016;2023-02-18T16:05:24;0.82;;;0.55;;
65717;SDS011;52445;52.466;-1.016;2023-02-18T16:07:56;1.58;;;0.43;;
65717;SDS011;52445;52.466;-1.016;2023-02-18T16:13:05;5.25;;;1.20;;
65717;SDS011;52445;52.466;-1.016;2023-02-18T16:15:36;7.00;;;2.63;;
65717;SDS011;52445;52.466;-1.016;2023-02-18T16:18:05;6.20;;;1.90;;
65717;SDS011;52445;52.466;-1.016;2023-02-18T16:20:48;17.05;;;5.65;;
65717;SDS011;52445;52.466;-1.016;2023-02-18T16:23:24;10.27;;;2.63;;
65717;SDS011;52445;52.466;-1.016;2023-02-18T16:25:52;3.17;;;1.33;;
65717;SDS011;52445;52.466;-1.016;2023-02-18T16:28:23;4.10;;;1.50;;
65717;SDS011;52445;52.466;-1.016;2023-02-18T16:31:00;7.95;;;4.43;;
65717;SDS011;52445;52.466;-1.016;2023-02-18T16:33:27;9.35;;;4.40;;
65717;SDS011;52445;52.466;-1.016;2023-02-18T16:35:53;4.50;;;2.75;;
65717;SDS011;52445;52.466;-1.016;2023-02-18T16:38:23;7.15;;;3.10;;
65717;SDS011;52445;52.466;-1.016;2023-02-18T16:40:51;8.95;;;4.70;;
65717;SDS011;52445;52.466;-1.016;2023-02-18T16:43:20;5.88;;;4.00;;
65717;SDS011;52445;52.466;-1.016;2023-02-18T16:45:50;5.97;;;2.97;;
65717;SDS011;52445;52.466;-1.016;2023-02-18T16:50:59;4.85;;;2.05;;
65717;SDS011;52445;52.466;-1.016;2023-02-18T16:53:28;2.65;;;0.80;;
65717;SDS011;52445;52.466;-1.016;2023-02-18T16:55:55;2.17;;;0.90;;
65717;SDS011;52445;52.466;-1.016;2023-02-18T16:58:22;3.50;;;0.90;;
65717;SDS011;52445;52.466;-1.016;2023-02-18T17:00:49;3.13;;;1.70;;
65717;SDS011;52445;52.466;-1.016;2023-02-18T17:03:17;3.58;;;1.25;;
65717;SDS011;52445;52.466;-1.016;2023-02-18T17:05:45;5.65;;;0.98;;
65717;SDS011;52445;52.466;-1.016;2023-02-18T17:08:14;6.07;;;2.28;;
65717;SDS011;52445;52.466;-1.016;2023-02-18T17:10:46;6.40;;;1.98;;
65717;SDS011;52445;52.466;-1.016;2023-02-18T17:13:16;3.00;;;0.73;;
65717;SDS011;52445;52.466;-1.016;2023-02-18T17:15:44;4.88;;;1.58;;
65717;SDS011;52445;52.466;-1.016;2023-02-18T17:18:13;6.57;;;1.33;;
65717;SDS011;52445;52.466;-1.016;2023-02-18T17:20:39;4.35;;;2.03;;
65717;SDS011;52445;52.466;-1.016;2023-02-18T17:23:06;6.57;;;2.17;;
65717;SDS011;52445;52.466;-1.016;2023-02-18T17:25:33;3.33;;;1.27;;
65717;SDS011;52445;52.466;-1.016;2023-02-18T17:28:03;5.28;;;1.42;;
65717;SDS011;52445;52.466;-1.016;2023-02-18T17:30:31;5.57;;;1.88;;
65717;SDS011;52445;52.466;-1.016;2023-02-18T17:33:02;9.15;;;2.83;;
65717;SDS011;52445;52.466;-1.016;2023-02-18T17:35:29;18.27;;;4.88;;
65717;SDS011;52445;52.466;-1.016;2023-02-18T17:37:56;18.00;;;4.13;;
65717;SDS011;52445;52.466;-1.016;2023-02-18T17:40:24;12.85;;;3.58;;
65717;SDS011;52445;52.466;-1.016;2023-02-18T17:42:52;15.75;;;3.88;;
65717;SDS011;52445;52.466;-1.016;2023-02-18T17:45:23;13.02;;;3.83;;
65717;SDS011;52445;52.466;-1.016;2023-02-18T17:47:55;21.70;;;5.35;;
65717;SDS011;52445;52.466;-1.016;2023-02-18T17:50:22;8.05;;;2.78;;
65717;SDS011;52445;52.466;-1.016;2023-02-18T17:52:49;15.93;;;3.45;;
65717;SDS011;52445;52.466;-1.016;2023-02-18T17:57:54;27.50;;;9.48;;